sensor_id;sensor_type;location;lat;lon;timestamp;P1;durP1;ratioP1;P2;durP2;ratioP2
31087;SDS011;17745;55.914;37.554;2023-03-31T00:02:25;6.72;;;3.72;;
31087;SDS011;17745;55.914;37.554;2023-03-31T00:04:55;5.78;;;3.80;;
31087;SDS011;17745;55.914;37.554;2023-03-31T00:07:24;4.80;;;3.60;;
31087;SDS011;17745;55.914;37.554;2023-03-31T00:09:53;6.28;;;3.87;;
31087;SDS011;17745;55.914;37.554;2023-03-31T00:12:28;9.85;;;5.10;;
31087;SDS011;17745;55.914;37.554;2023-03-31T00:14:55;4.28;;;2.97;;
31087;SDS011;17745;55.914;37.554;2023-03-31T00:17:23;5.50;;;3.85;;
31087;SDS011;17745;55.914;37.554;2023-03-31T00:19:51;7.28;;;5.53;;
31087;SDS011;17745;55.914;37.554;2023-03-31T00:22:24;5.32;;;3.65;;
31087;SDS011;17745;55.914;37.554;2023-03-31T00:24:55;6.60;;;4.78;;
31087;SDS011;17745;55.914;37.554;2023-03-31T00:27:22;7.47;;;4.35;;
31087;SDS011;17745;55.914;37.554;2023-03-31T00:29:49;7.65;;;4.15;;
31087;SDS011;17745;55.914;37.554;2023-03-31T00:32:20;6.15;;;4.72;;
31087;SDS011;17745;55.914;37.554;2023-03-31T00:34:51;7.78;;;4.62;;
31087;SDS011;17745;55.914;37.554;2023-03-31T00:37:18;5.87;;;4.15;;
31087;SDS011;17745;55.914;37.554;2023-03-31T00:39:48;8.20;;;4.75;;
31087;SDS011;17745;55.914;37.554;2023-03-31T00:42:17;5.82;;;4.50;;
31087;SDS011;17745;55.914;37.554;2023-03-31T00:47:52;8.25;;;4.80;;
31087;SDS011;17745;55.914;37.554;2023-03-31T00:50:22;4.47;;;3.35;;
31087;SDS011;17745;55.914;37.554;2023-03-31T00:52:54;4.07;;;3.28;;
31087;SDS011;17745;55.914;37.554;2023-03-31T00:55:24;4.80;;;3.60;;
31087;SDS011;17745;55.914;37.554;2023-03-31T00:57:58;5.90;;;4.12;;
31087;SDS011;17745;55.914;37.554;2023-03-31T01:00:29;5.00;;;3.80;;
31087;SDS011;17745;55.914;37.554;2023-03-31T01:02:57;5.72;;;4.32;;
31087;SDS011;17745;55.914;37.554;2023-03-31T01:05:31;5.43;;;4.12;;
31087;SDS011;17745;55.914;37.554;2023-03-31T01:08:03;6.20;;;4.32;;
31087;SDS011;17745;55.914;37.554;2023-03-31T01:10:32;5.25;;;4.28;;
31087;SDS011;17745;55.914;37.554;2023-03-31T01:15:36;4.70;;;3.37;;
31087;SDS011;17745;55.914;37.554;2023-03-31T01:18:04;4.82;;;3.58;;
31087;SDS011;17745;55.914;37.554;2023-03-31T01:20:36;4.35;;;3.17;;
31087;SDS011;17745;55.914;37.554;2023-03-31T01:23:17;6.68;;;4.10;;
31087;SDS011;17745;55.914;37.554;2023-03-31T01:32:30;6.03;;;4.20;;
31087;SDS011;17745;55.914;37.554;2023-03-31T01:35:31;7.07;;;3.47;;
31087;SDS011;17745;55.914;37.554;2023-03-31T01:41:30;4.87;;;3.55;;
31087;SDS011;17745;55.914;37.554;2023-03-31T01:44:11;4.45;;;3.42;;
31087;SDS011;17745;55.914;37.554;2023-03-31T01:46:46;5.95;;;3.85;;
31087;SDS011;17745;55.914;37.554;2023-03-31T01:49:20;6.72;;;4.85;;
31087;SDS011;17745;55.914;37.554;2023-03-31T01:51:53;5.30;;;4.03;;
31087;SDS011;17745;55.914;37.554;2023-03-31T01:54:28;5.95;;;3.72;;
31087;SDS011;17745;55.914;37.554;2023-03-31T01:57:07;5.57;;;4.00;;
31087;SDS011;17745;55.914;37.554;2023-03-31T01:59:41;4.15;;;3.17;;
31087;SDS011;17745;55.914;37.554;2023-03-31T02:02:22;4.43;;;3.50;;
31087;SDS011;17745;55.914;37.554;2023-03-31T02:04:55;6.18;;;3.83;;
31087;SDS011;17745;55.914;37.554;2023-03-31T02:07:27;5.25;;;3.42;;
31087;SDS011;17745;55.914;37.554;2023-03-31T02:10:01;5.05;;;3.53;;
31087;SDS011;17745;55.914;37.554;2023-03-31T02:12:33;3.72;;;2.90;;
31087;SDS011;17745;55.914;37.554;2023-03-31T02:15:06;5.30;;;3.92;;
31087;SDS011;17745;55.914;37.554;2023-03-31T02:17:36;3.58;;;2.65;;
31087;SDS011;17745;55.914;37.554;2023-03-31T02:20:08;4.62;;;3.20;;
31087;SDS011;17745;55.914;37.554;2023-03-31T02:22:41;4.20;;;3.08;;
31087;SDS011;17745;55.914;37.554;2023-03-31T02:25:13;4.80;;;3.70;;
31087;SDS011;17745;55.914;37.554;2023-03-31T02:27:47;4.97;;;3.90;;
31087;SDS011;17745;55.914;37.554;2023-03-31T02:30:20;7.00;;;3.78;;
31087;SDS011;17745;55.914;37.554;2023-03-31T02:32:48;5.62;;;3.30;;
31087;SDS011;17745;55.914;37.554;2023-03-31T02:35:15;7.62;;;4.78;;
31087;SDS011;17745;55.914;37.554;2023-03-31T02:37:50;3.55;;;3.20;;
31087;SDS011;17745;55.914;37.554;2023-03-31T02:40:19;3.90;;;3.00;;
31087;SDS011;17745;55.914;37.554;2023-03-31T02:42:53;3.77;;;2.90;;
31087;SDS011;17745;55.914;37.554;2023-03-31T02:45:38;5.25;;;4.12;;
31087;SDS011;17745;55.914;37.554;2023-03-31T02:48:09;6.35;;;3.87;;
31087;SDS011;17745;55.914;37.554;2023-03-31T02:50:43;4.47;;;3.60;;
31087;SDS011;17745;55.914;37.554;2023-03-31T02:53:30;6.18;;;4.03;;
31087;SDS011;17745;55.914;37.554;2023-03-31T02:56:09;4.47;;;3.00;;
31087;SDS011;17745;55.914;37.554;2023-03-31T02:58:52;4.50;;;3.03;;
31087;SDS011;17745;55.914;37.554;2023-03-31T03:01:37;3.75;;;2.92;;
31087;SDS011;17745;55.914;37.554;2023-03-31T03:04:28;5.40;;;4.10;;
31087;SDS011;17745;55.914;37.554;2023-03-31T03:07:11;4.10;;;3.35;;
31087;SDS011;17745;55.914;37.554;2023-03-31T03:09:54;3.25;;;2.53;;
31087;SDS011;17745;55.914;37.554;2023-03-31T03:12:30;6.53;;;4.72;;
31087;SDS011;17745;55.914;37.554;2023-03-31T03:15:06;5.82;;;4.05;;
31087;SDS011;17745;55.914;37.554;2023-03-31T03:17:38;8.35;;;4.95;;
31087;SDS011;17745;55.914;37.554;2023-03-31T03:20:09;5.03;;;4.12;;
31087;SDS011;17745;55.914;37.554;2023-03-31T03:22:38;5.37;;;3.72;;
31087;SDS011;17745;55.914;37.554;2023-03-31T03:25:07;6.37;;;4.10;;
31087;SDS011;17745;55.914;37.554;2023-03-31T03:27:36;5.50;;;3.67;;
31087;SDS011;17745;55.914;37.554;2023-03-31T03:30:07;5.47;;;3.97;;
31087;SDS011;17745;55.914;37.554;2023-03-31T03:32:37;4.22;;;3.33;;
31087;SDS011;17745;55.914;37.554;2023-03-31T03:35:06;7.18;;;4.70;;
31087;SDS011;17745;55.914;37.554;2023-03-31T03:37:34;4.62;;;3.72;;
31087;SDS011;17745;55.914;37.554;2023-03-31T03:40:04;6.28;;;4.37;;
31087;SDS011;17745;55.914;37.554;2023-03-31T03:42:33;6.35;;;4.47;;
31087;SDS011;17745;55.914;37.554;2023-03-31T03:45:01;5.75;;;3.65;;
31087;SDS011;17745;55.914;37.554;2023-03-31T03:47:31;8.00;;;3.45;;
31087;SDS011;17745;55.914;37.554;2023-03-31T03:50:01;4.87;;;3.67;;
31087;SDS011;17745;55.914;37.554;2023-03-31T03:52:29;6.22;;;4.57;;
31087;SDS011;17745;55.914;37.554;2023-03-31T03:54:59;7.15;;;3.95;;
31087;SDS011;17745;55.914;37.554;2023-03-31T03:57:29;8.27;;;5.37;;
31087;SDS011;17745;55.914;37.554;2023-03-31T04:00:06;6.68;;;4.90;;
31087;SDS011;17745;55.914;37.554;2023-03-31T04:02:51;6.95;;;3.83;;
31087;SDS011;17745;55.914;37.554;2023-03-31T04:05:19;4.95;;;3.72;;
31087;SDS011;17745;55.914;37.554;2023-03-31T04:07:46;8.27;;;5.30;;
31087;SDS011;17745;55.914;37.554;2023-03-31T04:10:14;5.95;;;4.10;;
31087;SDS011;17745;55.914;37.554;2023-03-31T04:12:42;5.75;;;4.05;;
31087;SDS011;17745;55.914;37.554;2023-03-31T04:15:10;5.78;;;3.92;;
31087;SDS011;17745;55.914;37.554;2023-03-31T04:17:37;6.60;;;4.40;;
31087;SDS011;17745;55.914;37.554;2023-03-31T04:20:09;6.22;;;3.67;;
31087;SDS011;17745;55.914;37.554;2023-03-31T04:22:42;7.60;;;5.37;;
31087;SDS011;17745;55.914;37.554;2023-03-31T04:25:12;9.18;;;4.55;;
31087;SDS011;17745;55.914;37.554;2023-03-31T04:27:41;7.50;;;5.65;;
31087;SDS011;17745;55.914;37.554;2023-03-31T04:30:12;8.30;;;5.43;;
31087;SDS011;17745;55.914;37.554;2023-03-31T04:32:47;6.28;;;3.95;;
31087;SDS011;17745;55.914;37.554;2023-03-31T04:35:18;6.12;;;4.03;;
31087;SDS011;17745;55.914;37.554;2023-03-31T04:37:46;5.37;;;3.75;;
31087;SDS011;17745;55.914;37.554;2023-03-31T04:40:17;6.87;;;4.55;;
31087;SDS011;17745;55.914;37.554;2023-03-31T04:42:45;5.45;;;4.20;;
31087;SDS011;17745;55.914;37.554;2023-03-31T04:45:13;4.40;;;3.25;;
31087;SDS011;17745;55.914;37.554;2023-03-31T04:47:40;7.95;;;5.03;;
31087;SDS011;17745;55.914;37.554;2023-03-31T04:50:08;7.68;;;4.45;;
31087;SDS011;17745;55.914;37.554;2023-03-31T04:52:38;6.65;;;3.35;;
31087;SDS011;17745;55.914;37.554;2023-03-31T04:55:06;7.45;;;4.05;;
31087;SDS011;17745;55.914;37.554;2023-03-31T04:57:34;9.93;;;4.32;;
31087;SDS011;17745;55.914;37.554;2023-03-31T05:00:09;6.32;;;4.05;;
31087;SDS011;17745;55.914;37.554;2023-03-31T05:02:41;9.57;;;4.12;;
31087;SDS011;17745;55.914;37.554;2023-03-31T05:05:09;5.65;;;4.15;;
31087;SDS011;17745;55.914;37.554;2023-03-31T05:07:38;4.47;;;2.90;;
31087;SDS011;17745;55.914;37.554;2023-03-31T05:10:06;2.87;;;2.42;;
31087;SDS011;17745;55.914;37.554;2023-03-31T05:12:34;3.87;;;2.80;;
31087;SDS011;17745;55.914;37.554;2023-03-31T05:15:03;7.93;;;3.47;;
31087;SDS011;17745;55.914;37.554;2023-03-31T05:17:39;3.42;;;2.80;;
31087;SDS011;17745;55.914;37.554;2023-03-31T05:20:06;4.70;;;3.20;;
31087;SDS011;17745;55.914;37.554;2023-03-31T05:22:35;4.47;;;3.40;;
31087;SDS011;17745;55.914;37.554;2023-03-31T05:25:06;4.80;;;3.42;;
31087;SDS011;17745;55.914;37.554;2023-03-31T05:27:38;5.10;;;3.70;;
31087;SDS011;17745;55.914;37.554;2023-03-31T05:30:07;6.82;;;4.53;;
31087;SDS011;17745;55.914;37.554;2023-03-31T05:32:37;5.80;;;4.15;;
31087;SDS011;17745;55.914;37.554;2023-03-31T05:35:08;6.47;;;4.03;;
31087;SDS011;17745;55.914;37.554;2023-03-31T05:37:45;6.22;;;4.40;;
31087;SDS011;17745;55.914;37.554;2023-03-31T05:40:15;5.50;;;3.87;;
31087;SDS011;17745;55.914;37.554;2023-03-31T05:42:45;5.15;;;4.03;;
31087;SDS011;17745;55.914;37.554;2023-03-31T05:45:13;7.53;;;5.03;;
31087;SDS011;17745;55.914;37.554;2023-03-31T05:47:40;4.90;;;2.70;;
31087;SDS011;17745;55.914;37.554;2023-03-31T05:50:08;7.28;;;4.15;;
31087;SDS011;17745;55.914;37.554;2023-03-31T05:52:36;18.05;;;4.53;;
31087;SDS011;17745;55.914;37.554;2023-03-31T05:55:04;14.87;;;5.35;;
31087;SDS011;17745;55.914;37.554;2023-03-31T05:57:35;6.87;;;4.72;;
31087;SDS011;17745;55.914;37.554;2023-03-31T06:00:08;11.65;;;4.85;;
31087;SDS011;17745;55.914;37.554;2023-03-31T06:02:40;6.82;;;4.20;;
31087;SDS011;17745;55.914;37.554;2023-03-31T06:05:08;7.10;;;4.50;;
31087;SDS011;17745;55.914;37.554;2023-03-31T06:07:35;6.62;;;4.22;;
31087;SDS011;17745;55.914;37.554;2023-03-31T06:10:03;5.57;;;4.03;;
31087;SDS011;17745;55.914;37.554;2023-03-31T06:12:32;9.40;;;5.10;;
31087;SDS011;17745;55.914;37.554;2023-03-31T06:15:06;4.18;;;2.97;;
31087;SDS011;17745;55.914;37.554;2023-03-31T06:17:34;7.95;;;3.08;;
31087;SDS011;17745;55.914;37.554;2023-03-31T06:20:02;6.25;;;4.07;;
31087;SDS011;17745;55.914;37.554;2023-03-31T06:25:52;6.40;;;4.28;;
31087;SDS011;17745;55.914;37.554;2023-03-31T06:28:21;4.55;;;3.25;;
31087;SDS011;17745;55.914;37.554;2023-03-31T06:30:58;5.25;;;3.55;;
31087;SDS011;17745;55.914;37.554;2023-03-31T06:33:27;8.50;;;4.13;;
31087;SDS011;17745;55.914;37.554;2023-03-31T06:35:55;7.20;;;3.80;;
31087;SDS011;17745;55.914;37.554;2023-03-31T06:38:26;6.00;;;3.05;;
31087;SDS011;17745;55.914;37.554;2023-03-31T06:40:56;4.70;;;3.00;;
31087;SDS011;17745;55.914;37.554;2023-03-31T06:43:24;6.03;;;4.37;;
31087;SDS011;17745;55.914;37.554;2023-03-31T06:45:52;5.25;;;3.65;;
31087;SDS011;17745;55.914;37.554;2023-03-31T06:48:22;5.30;;;3.85;;
31087;SDS011;17745;55.914;37.554;2023-03-31T06:50:57;5.53;;;4.00;;
31087;SDS011;17745;55.914;37.554;2023-03-31T06:53:26;12.95;;;4.12;;
31087;SDS011;17745;55.914;37.554;2023-03-31T06:55:54;10.82;;;4.68;;
31087;SDS011;17745;55.914;37.554;2023-03-31T06:58:29;9.82;;;3.42;;
31087;SDS011;17745;55.914;37.554;2023-03-31T07:00:57;11.23;;;6.57;;
31087;SDS011;17745;55.914;37.554;2023-03-31T07:03:28;10.90;;;5.12;;
31087;SDS011;17745;55.914;37.554;2023-03-31T07:05:55;4.68;;;3.20;;
31087;SDS011;17745;55.914;37.554;2023-03-31T07:08:23;4.03;;;2.80;;
31087;SDS011;17745;55.914;37.554;2023-03-31T07:10:53;6.85;;;2.67;;
31087;SDS011;17745;55.914;37.554;2023-03-31T07:13:24;10.02;;;6.82;;
31087;SDS011;17745;55.914;37.554;2023-03-31T07:15:59;7.97;;;5.50;;
31087;SDS011;17745;55.914;37.554;2023-03-31T07:18:29;4.57;;;3.22;;
31087;SDS011;17745;55.914;37.554;2023-03-31T07:21:00;10.15;;;6.10;;
31087;SDS011;17745;55.914;37.554;2023-03-31T07:23:29;8.70;;;6.62;;
31087;SDS011;17745;55.914;37.554;2023-03-31T07:25:59;5.28;;;3.03;;
31087;SDS011;17745;55.914;37.554;2023-03-31T07:28:29;6.20;;;3.72;;
31087;SDS011;17745;55.914;37.554;2023-03-31T07:30:57;13.15;;;3.42;;
31087;SDS011;17745;55.914;37.554;2023-03-31T07:33:25;4.95;;;3.40;;
31087;SDS011;17745;55.914;37.554;2023-03-31T07:35:53;3.33;;;2.58;;
31087;SDS011;17745;55.914;37.554;2023-03-31T07:38:34;4.45;;;3.30;;
31087;SDS011;17745;55.914;37.554;2023-03-31T07:41:04;2.45;;;2.08;;
31087;SDS011;17745;55.914;37.554;2023-03-31T07:43:43;5.37;;;3.67;;
31087;SDS011;17745;55.914;37.554;2023-03-31T07:46:15;2.92;;;2.35;;
31087;SDS011;17745;55.914;37.554;2023-03-31T07:48:45;4.62;;;2.62;;
31087;SDS011;17745;55.914;37.554;2023-03-31T07:51:14;4.30;;;3.05;;
31087;SDS011;17745;55.914;37.554;2023-03-31T07:53:45;5.82;;;3.12;;
31087;SDS011;17745;55.914;37.554;2023-03-31T07:56:20;4.00;;;2.85;;
31087;SDS011;17745;55.914;37.554;2023-03-31T07:59:02;5.50;;;3.50;;
31087;SDS011;17745;55.914;37.554;2023-03-31T08:01:35;5.87;;;3.72;;
31087;SDS011;17745;55.914;37.554;2023-03-31T08:04:25;5.53;;;3.53;;
31087;SDS011;17745;55.914;37.554;2023-03-31T08:06:57;6.50;;;3.42;;
31087;SDS011;17745;55.914;37.554;2023-03-31T08:09:29;6.00;;;3.15;;
31087;SDS011;17745;55.914;37.554;2023-03-31T08:12:00;5.20;;;3.42;;
31087;SDS011;17745;55.914;37.554;2023-03-31T08:14:34;4.72;;;3.37;;
31087;SDS011;17745;55.914;37.554;2023-03-31T08:17:06;4.37;;;2.80;;
31087;SDS011;17745;55.914;37.554;2023-03-31T08:19:38;3.53;;;2.42;;
31087;SDS011;17745;55.914;37.554;2023-03-31T08:22:10;6.57;;;4.15;;
31087;SDS011;17745;55.914;37.554;2023-03-31T08:24:40;6.70;;;3.65;;
31087;SDS011;17745;55.914;37.554;2023-03-31T08:27:08;4.87;;;2.83;;
31087;SDS011;17745;55.914;37.554;2023-03-31T08:29:40;5.20;;;3.00;;
31087;SDS011;17745;55.914;37.554;2023-03-31T08:32:14;4.80;;;2.90;;
31087;SDS011;17745;55.914;37.554;2023-03-31T08:34:45;7.62;;;3.50;;
31087;SDS011;17745;55.914;37.554;2023-03-31T08:37:14;7.10;;;3.85;;
31087;SDS011;17745;55.914;37.554;2023-03-31T08:39:42;7.97;;;4.10;;
31087;SDS011;17745;55.914;37.554;2023-03-31T08:42:16;8.35;;;3.40;;
31087;SDS011;17745;55.914;37.554;2023-03-31T08:44:58;5.62;;;2.70;;
31087;SDS011;17745;55.914;37.554;2023-03-31T08:47:29;7.57;;;4.53;;
31087;SDS011;17745;55.914;37.554;2023-03-31T08:50:03;4.32;;;2.62;;
31087;SDS011;17745;55.914;37.554;2023-03-31T08:52:37;4.73;;;3.63;;
31087;SDS011;17745;55.914;37.554;2023-03-31T08:55:11;7.93;;;2.87;;
31087;SDS011;17745;55.914;37.554;2023-03-31T08:57:48;4.75;;;3.03;;
31087;SDS011;17745;55.914;37.554;2023-03-31T09:00:36;3.53;;;2.65;;
31087;SDS011;17745;55.914;37.554;2023-03-31T09:03:17;10.50;;;3.95;;
31087;SDS011;17745;55.914;37.554;2023-03-31T09:05:50;7.10;;;3.80;;
31087;SDS011;17745;55.914;37.554;2023-03-31T09:08:33;4.93;;;2.30;;
31087;SDS011;17745;55.914;37.554;2023-03-31T09:11:09;5.03;;;3.12;;
31087;SDS011;17745;55.914;37.554;2023-03-31T09:13:53;3.08;;;2.30;;
31087;SDS011;17745;55.914;37.554;2023-03-31T09:16:34;6.20;;;3.33;;
31087;SDS011;17745;55.914;37.554;2023-03-31T09:19:13;7.68;;;3.40;;
31087;SDS011;17745;55.914;37.554;2023-03-31T09:21:48;4.35;;;2.83;;
31087;SDS011;17745;55.914;37.554;2023-03-31T09:24:21;7.50;;;4.72;;
31087;SDS011;17745;55.914;37.554;2023-03-31T09:26:54;9.02;;;3.35;;
31087;SDS011;17745;55.914;37.554;2023-03-31T09:29:28;10.35;;;4.20;;
31087;SDS011;17745;55.914;37.554;2023-03-31T09:32:05;4.53;;;2.80;;
31087;SDS011;17745;55.914;37.554;2023-03-31T09:34:41;3.35;;;2.50;;
31087;SDS011;17745;55.914;37.554;2023-03-31T09:37:10;7.18;;;3.40;;
31087;SDS011;17745;55.914;37.554;2023-03-31T09:39:39;6.80;;;4.00;;
31087;SDS011;17745;55.914;37.554;2023-03-31T09:42:09;6.75;;;3.08;;
31087;SDS011;17745;55.914;37.554;2023-03-31T09:44:39;5.95;;;3.55;;
31087;SDS011;17745;55.914;37.554;2023-03-31T09:47:12;5.05;;;2.80;;
31087;SDS011;17745;55.914;37.554;2023-03-31T09:49:45;5.97;;;3.10;;
31087;SDS011;17745;55.914;37.554;2023-03-31T09:52:24;8.43;;;4.53;;
31087;SDS011;17745;55.914;37.554;2023-03-31T09:54:57;6.72;;;3.80;;
31087;SDS011;17745;55.914;37.554;2023-03-31T09:57:28;6.82;;;3.67;;
31087;SDS011;17745;55.914;37.554;2023-03-31T10:00:00;7.20;;;3.08;;
31087;SDS011;17745;55.914;37.554;2023-03-31T10:02:39;5.00;;;2.78;;
31087;SDS011;17745;55.914;37.554;2023-03-31T10:05:21;13.05;;;4.07;;
31087;SDS011;17745;55.914;37.554;2023-03-31T10:08:09;4.68;;;3.03;;
31087;SDS011;17745;55.914;37.554;2023-03-31T10:10:55;5.62;;;3.08;;
31087;SDS011;17745;55.914;37.554;2023-03-31T10:13:24;6.65;;;3.15;;
31087;SDS011;17745;55.914;37.554;2023-03-31T10:16:00;5.50;;;3.10;;
31087;SDS011;17745;55.914;37.554;2023-03-31T10:18:33;7.47;;;3.40;;
31087;SDS011;17745;55.914;37.554;2023-03-31T10:21:03;5.55;;;3.03;;
31087;SDS011;17745;55.914;37.554;2023-03-31T10:23:33;4.15;;;2.78;;
31087;SDS011;17745;55.914;37.554;2023-03-31T10:26:01;4.45;;;2.80;;
31087;SDS011;17745;55.914;37.554;2023-03-31T10:28:34;4.82;;;3.28;;
31087;SDS011;17745;55.914;37.554;2023-03-31T10:31:02;8.98;;;3.20;;
31087;SDS011;17745;55.914;37.554;2023-03-31T10:33:31;6.40;;;3.45;;
31087;SDS011;17745;55.914;37.554;2023-03-31T10:36:08;7.03;;;3.35;;
31087;SDS011;17745;55.914;37.554;2023-03-31T10:38:46;4.43;;;2.62;;
31087;SDS011;17745;55.914;37.554;2023-03-31T10:41:22;6.72;;;3.15;;
31087;SDS011;17745;55.914;37.554;2023-03-31T10:43:58;5.60;;;3.45;;
31087;SDS011;17745;55.914;37.554;2023-03-31T10:46:41;6.40;;;3.12;;
31087;SDS011;17745;55.914;37.554;2023-03-31T10:49:22;7.45;;;4.05;;
31087;SDS011;17745;55.914;37.554;2023-03-31T10:51:56;6.18;;;3.70;;
31087;SDS011;17745;55.914;37.554;2023-03-31T10:54:34;4.50;;;3.15;;
31087;SDS011;17745;55.914;37.554;2023-03-31T10:57:04;9.68;;;4.18;;
31087;SDS011;17745;55.914;37.554;2023-03-31T10:59:36;6.45;;;2.90;;
31087;SDS011;17745;55.914;37.554;2023-03-31T11:02:32;7.15;;;3.80;;
31087;SDS011;17745;55.914;37.554;2023-03-31T11:05:19;4.75;;;3.10;;
31087;SDS011;17745;55.914;37.554;2023-03-31T11:08:00;6.18;;;3.78;;
31087;SDS011;17745;55.914;37.554;2023-03-31T11:10:59;6.15;;;3.10;;
31087;SDS011;17745;55.914;37.554;2023-03-31T11:13:43;6.45;;;4.00;;
31087;SDS011;17745;55.914;37.554;2023-03-31T11:16:21;5.07;;;3.05;;
31087;SDS011;17745;55.914;37.554;2023-03-31T11:19:00;6.60;;;4.10;;
31087;SDS011;17745;55.914;37.554;2023-03-31T11:21:44;6.50;;;3.90;;
31087;SDS011;17745;55.914;37.554;2023-03-31T11:24:27;6.47;;;3.75;;
31087;SDS011;17745;55.914;37.554;2023-03-31T11:27:13;6.12;;;3.80;;
31087;SDS011;17745;55.914;37.554;2023-03-31T11:29:59;7.70;;;3.97;;
31087;SDS011;17745;55.914;37.554;2023-03-31T11:32:38;6.28;;;3.97;;
31087;SDS011;17745;55.914;37.554;2023-03-31T11:35:32;5.28;;;3.50;;
31087;SDS011;17745;55.914;37.554;2023-03-31T11:41:17;7.10;;;3.92;;
31087;SDS011;17745;55.914;37.554;2023-03-31T11:44:08;6.78;;;3.72;;
31087;SDS011;17745;55.914;37.554;2023-03-31T11:46:41;6.95;;;3.58;;
31087;SDS011;17745;55.914;37.554;2023-03-31T11:49:15;10.27;;;3.83;;
31087;SDS011;17745;55.914;37.554;2023-03-31T11:51:47;10.90;;;3.90;;
31087;SDS011;17745;55.914;37.554;2023-03-31T11:54:24;10.77;;;4.20;;
31087;SDS011;17745;55.914;37.554;2023-03-31T11:56:58;7.85;;;4.62;;
31087;SDS011;17745;55.914;37.554;2023-03-31T11:59:32;8.20;;;4.40;;
31087;SDS011;17745;55.914;37.554;2023-03-31T12:02:14;6.25;;;3.78;;
31087;SDS011;17745;55.914;37.554;2023-03-31T12:04:50;6.53;;;4.07;;
31087;SDS011;17745;55.914;37.554;2023-03-31T12:07:29;6.85;;;3.95;;
31087;SDS011;17745;55.914;37.554;2023-03-31T12:10:02;6.85;;;3.80;;
31087;SDS011;17745;55.914;37.554;2023-03-31T12:12:36;5.15;;;3.35;;
31087;SDS011;17745;55.914;37.554;2023-03-31T12:15:13;8.35;;;4.47;;
31087;SDS011;17745;55.914;37.554;2023-03-31T12:17:46;7.15;;;4.78;;
31087;SDS011;17745;55.914;37.554;2023-03-31T12:20:24;7.85;;;4.50;;
31087;SDS011;17745;55.914;37.554;2023-03-31T12:22:58;8.25;;;4.55;;
31087;SDS011;17745;55.914;37.554;2023-03-31T12:25:38;6.87;;;3.97;;
31087;SDS011;17745;55.914;37.554;2023-03-31T12:28:16;7.87;;;4.00;;
31087;SDS011;17745;55.914;37.554;2023-03-31T12:30:54;7.07;;;4.45;;
31087;SDS011;17745;55.914;37.554;2023-03-31T12:33:27;9.25;;;4.45;;
31087;SDS011;17745;55.914;37.554;2023-03-31T12:36:06;7.25;;;4.47;;
31087;SDS011;17745;55.914;37.554;2023-03-31T12:38:57;11.68;;;4.82;;
31087;SDS011;17745;55.914;37.554;2023-03-31T12:41:54;7.85;;;4.68;;
31087;SDS011;17745;55.914;37.554;2023-03-31T12:44:36;9.18;;;5.25;;
31087;SDS011;17745;55.914;37.554;2023-03-31T12:47:32;5.93;;;3.78;;
31087;SDS011;17745;55.914;37.554;2023-03-31T12:50:16;4.30;;;3.12;;
31087;SDS011;17745;55.914;37.554;2023-03-31T12:53:02;8.05;;;4.32;;
31087;SDS011;17745;55.914;37.554;2023-03-31T12:55:38;7.30;;;4.53;;
31087;SDS011;17745;55.914;37.554;2023-03-31T13:01:20;8.23;;;4.97;;
31087;SDS011;17745;55.914;37.554;2023-03-31T13:03:51;9.57;;;4.70;;
31087;SDS011;17745;55.914;37.554;2023-03-31T13:12:12;9.07;;;4.50;;
31087;SDS011;17745;55.914;37.554;2023-03-31T13:14:51;8.00;;;4.32;;
31087;SDS011;17745;55.914;37.554;2023-03-31T13:17:24;10.98;;;5.25;;
31087;SDS011;17745;55.914;37.554;2023-03-31T13:22:45;7.78;;;5.28;;
31087;SDS011;17745;55.914;37.554;2023-03-31T13:28:23;10.77;;;5.65;;
31087;SDS011;17745;55.914;37.554;2023-03-31T13:31:09;9.20;;;5.40;;
31087;SDS011;17745;55.914;37.554;2023-03-31T13:33:40;10.32;;;6.40;;
31087;SDS011;17745;55.914;37.554;2023-03-31T13:45:54;13.23;;;6.50;;
31087;SDS011;17745;55.914;37.554;2023-03-31T13:48:41;16.27;;;6.90;;
31087;SDS011;17745;55.914;37.554;2023-03-31T13:51:24;17.08;;;6.60;;
31087;SDS011;17745;55.914;37.554;2023-03-31T14:11:30;10.73;;;6.65;;
31087;SDS011;17745;55.914;37.554;2023-03-31T14:38:29;13.73;;;7.93;;
31087;SDS011;17745;55.914;37.554;2023-03-31T14:41:02;13.50;;;7.57;;
31087;SDS011;17745;55.914;37.554;2023-03-31T14:43:33;13.95;;;8.52;;
31087;SDS011;17745;55.914;37.554;2023-03-31T14:46:08;16.52;;;7.57;;
31087;SDS011;17745;55.914;37.554;2023-03-31T14:48:39;16.40;;;9.00;;
31087;SDS011;17745;55.914;37.554;2023-03-31T14:51:24;16.58;;;9.52;;
31087;SDS011;17745;55.914;37.554;2023-03-31T15:35:27;21.67;;;10.30;;
31087;SDS011;17745;55.914;37.554;2023-03-31T15:39:16;12.55;;;8.27;;
31087;SDS011;17745;55.914;37.554;2023-03-31T15:41:51;13.77;;;8.23;;
31087;SDS011;17745;55.914;37.554;2023-03-31T15:48:29;15.98;;;7.55;;
31087;SDS011;17745;55.914;37.554;2023-03-31T15:51:18;15.65;;;7.80;;
31087;SDS011;17745;55.914;37.554;2023-03-31T15:54:30;14.30;;;7.97;;
31087;SDS011;17745;55.914;37.554;2023-03-31T15:57:08;14.15;;;8.00;;
31087;SDS011;17745;55.914;37.554;2023-03-31T15:59:49;18.58;;;7.95;;
31087;SDS011;17745;55.914;37.554;2023-03-31T16:02:35;18.62;;;9.88;;
31087;SDS011;17745;55.914;37.554;2023-03-31T16:05:14;15.43;;;8.15;;
31087;SDS011;17745;55.914;37.554;2023-03-31T16:07:54;16.87;;;9.50;;
31087;SDS011;17745;55.914;37.554;2023-03-31T16:10:26;13.85;;;8.85;;
31087;SDS011;17745;55.914;37.554;2023-03-31T16:13:02;15.68;;;9.68;;
31087;SDS011;17745;55.914;37.554;2023-03-31T16:15:43;17.25;;;9.25;;
31087;SDS011;17745;55.914;37.554;2023-03-31T16:18:36;23.15;;;11.93;;
31087;SDS011;17745;55.914;37.554;2023-03-31T16:21:17;17.90;;;10.85;;
31087;SDS011;17745;55.914;37.554;2023-03-31T16:24:08;17.17;;;10.10;;
31087;SDS011;17745;55.914;37.554;2023-03-31T16:26:48;17.17;;;8.93;;
31087;SDS011;17745;55.914;37.554;2023-03-31T16:29:29;16.33;;;8.98;;
31087;SDS011;17745;55.914;37.554;2023-03-31T16:32:31;19.62;;;9.45;;
31087;SDS011;17745;55.914;37.554;2023-03-31T16:35:10;16.52;;;9.52;;
31087;SDS011;17745;55.914;37.554;2023-03-31T16:38:02;16.37;;;9.77;;
31087;SDS011;17745;55.914;37.554;2023-03-31T16:40:47;15.90;;;9.82;;
31087;SDS011;17745;55.914;37.554;2023-03-31T16:43:36;18.83;;;10.30;;
31087;SDS011;17745;55.914;37.554;2023-03-31T16:46:23;18.90;;;10.45;;
31087;SDS011;17745;55.914;37.554;2023-03-31T16:49:00;19.65;;;10.52;;
31087;SDS011;17745;55.914;37.554;2023-03-31T16:51:43;20.05;;;10.18;;
31087;SDS011;17745;55.914;37.554;2023-03-31T16:55:04;14.85;;;9.40;;
31087;SDS011;17745;55.914;37.554;2023-03-31T16:57:48;18.12;;;10.98;;
31087;SDS011;17745;55.914;37.554;2023-03-31T17:00:22;16.65;;;9.95;;
31087;SDS011;17745;55.914;37.554;2023-03-31T17:02:54;21.42;;;10.55;;
31087;SDS011;17745;55.914;37.554;2023-03-31T17:08:05;23.12;;;13.65;;
31087;SDS011;17745;55.914;37.554;2023-03-31T17:10:49;25.60;;;15.95;;
31087;SDS011;17745;55.914;37.554;2023-03-31T17:13:26;21.40;;;12.40;;
31087;SDS011;17745;55.914;37.554;2023-03-31T17:16:05;18.77;;;12.15;;
31087;SDS011;17745;55.914;37.554;2023-03-31T17:18:36;21.42;;;13.40;;
31087;SDS011;17745;55.914;37.554;2023-03-31T17:21:14;18.55;;;11.50;;
31087;SDS011;17745;55.914;37.554;2023-03-31T17:23:51;15.73;;;9.95;;
31087;SDS011;17745;55.914;37.554;2023-03-31T17:26:25;19.00;;;10.60;;
31087;SDS011;17745;55.914;37.554;2023-03-31T17:29:16;17.00;;;10.80;;
31087;SDS011;17745;55.914;37.554;2023-03-31T17:32:35;18.25;;;11.38;;
31087;SDS011;17745;55.914;37.554;2023-03-31T17:35:37;20.52;;;11.75;;